Terminal Aerodrome Forecast
Issued by NWS St Louis, MO

Home | Current Version | Previous Version | Text Only | Print | Product List | Glossary On
Versions: 1 2 3 4 5 6 7 8 9 10 11 12 13 14 15 16 17 18 19 20 21 22 23
108
FTUS43 KLSX 200520
TAFSTL
TAF
KSTL 200520Z 2006/2112 VRB04KT P6SM SKC
     FM201500 10008KT P6SM FEW150
     FM210300 09004KT P6SM FEW150=

USA.gov is the U.S. government's official web portal to all federal, state and local government web resources and services.